Terminal Aerodrome Forecast
Issued by NWS

Home | Current Version | Previous Version | Graphics & Text | Print | Product List | Glossary On
Versions: 1 2 3 4 5 6 7 8 9 10 11 12 13 14 15 16
630
FTUS43 KFGF 171528 AAA
TAFBJI
TAF AMD
KBJI 171528Z 1715/1812 22010KT P6SM SKC
     FM171800 24012KT P6SM SKC
     FM180200 26008KT P6SM SCT250=

USA.gov is the U.S. government's official web portal to all federal, state and local government web resources and services.